Midland, Nebraska
Current Conditions -  °F | °C
As of 7:53 AM on Thursday 30 Oct 2014 (Local Time) from KGRI Reporting Station
Clear Clear  
Wind Chill: 33°   Ceiling: Unl
Heat Index: 39°   Visibility: 10mi
Dew Point: 32°   Wind: 8mph
Humidity: 76%   Direction: 280°W
Pressure: 30.12"   Gusts: NA
Location:  41.1769°N, 98.1165°W
Report Text: KGRI 301253Z 28007KT 10SM CLR 04/00 A3012 RMK AO2 SLP205 T00390000
Loading
Personal Weather Stations






























Interactive Weather Map
Tropical Storm Tracking
New forecast layout! Learn more

10-Day Weather Forecast

Advertisements
Track Severe Weather on mobile